createdAt,value
2023-05-17T00:00:03.040Z,100.00
2023-05-17T00:02:30.723Z,100.00
2023-05-17T00:04:58.523Z,100.00
2023-05-17T00:07:27.579Z,100.00
2023-05-17T00:09:55.538Z,100.00
2023-05-17T00:12:23.454Z,100.00
2023-05-17T00:14:51.111Z,100.00
2023-05-17T00:17:18.750Z,100.00
2023-05-17T00:19:46.380Z,100.00
2023-05-17T00:22:14.093Z,100.00
2023-05-17T00:24:43.061Z,100.00
2023-05-17T00:27:10.833Z,100.00
2023-05-17T00:29:38.496Z,100.00
2023-05-17T00:32:06.958Z,100.00
2023-05-17T00:34:34.821Z,100.00
2023-05-17T00:37:02.765Z,100.00
2023-05-17T00:39:30.419Z,100.00
2023-05-17T00:41:59.459Z,100.00
2023-05-17T00:44:27.092Z,100.00
2023-05-17T00:46:54.804Z,100.00
2023-05-17T00:49:22.659Z,100.00
2023-05-17T00:51:50.346Z,100.00
2023-05-17T00:54:17.953Z,100.00
2023-05-17T00:56:45.976Z,100.00
2023-05-17T00:59:15.163Z,100.00
2023-05-17T01:01:45.252Z,100.00
2023-05-17T01:04:13.048Z,100.00
2023-05-17T01:06:41.136Z,100.00
2023-05-17T01:09:09.045Z,100.00
2023-05-17T01:11:43.447Z,100.00
2023-05-17T01:14:24.068Z,100.00
2023-05-17T01:16:57.193Z,100.00
2023-05-17T01:19:42.541Z,100.00
2023-05-17T01:22:17.379Z,100.00
2023-05-17T01:24:52.115Z,100.00
2023-05-17T01:27:22.015Z,100.00
2023-05-17T01:29:50.836Z,100.00
2023-05-17T01:32:19.083Z,100.00
2023-05-17T01:34:46.805Z,100.00
2023-05-17T01:37:14.476Z,100.00
2023-05-17T01:39:42.501Z,100.00
2023-05-17T01:42:15.177Z,100.00
2023-05-17T01:44:54.440Z,100.00
2023-05-17T01:47:27.462Z,100.00
2023-05-17T01:49:55.363Z,100.00
2023-05-17T01:52:28.922Z,100.00
2023-05-17T01:55:03.322Z,100.00
2023-05-17T01:57:34.443Z,100.00
2023-05-17T02:00:06.087Z,100.00
2023-05-17T02:02:33.771Z,100.00
2023-05-17T02:05:01.444Z,100.00
2023-05-17T02:07:29.221Z,100.00
2023-05-17T02:09:56.860Z,100.00
2023-05-17T02:12:25.377Z,100.00
2023-05-17T02:14:53.056Z,100.00
2023-05-17T02:17:22.136Z,100.00
2023-05-17T02:19:49.861Z,100.00
2023-05-17T02:22:17.566Z,100.00
2023-05-17T02:24:46.703Z,100.00
2023-05-17T02:27:14.374Z,100.00
2023-05-17T02:29:42.745Z,100.00
2023-05-17T02:32:11.035Z,100.00
2023-05-17T02:34:40.058Z,100.00
2023-05-17T02:37:07.680Z,100.00
2023-05-17T02:39:35.406Z,100.00
2023-05-17T02:42:03.072Z,100.00
2023-05-17T02:44:30.762Z,100.00
2023-05-17T02:46:58.419Z,100.00
2023-05-17T02:49:26.162Z,100.00
2023-05-17T02:51:55.209Z,100.00
2023-05-17T02:54:22.925Z,100.00
2023-05-17T02:57:42.887Z,100.00
2023-05-17T03:00:11.093Z,100.00
2023-05-17T03:02:38.809Z,100.00
2023-05-17T03:05:08.336Z,100.00
2023-05-17T03:07:36.234Z,100.00
2023-05-17T03:10:03.908Z,100.00
2023-05-17T03:12:31.560Z,100.00
2023-05-17T03:15:00.629Z,100.00
2023-05-17T03:17:28.439Z,100.00
2023-05-17T03:19:56.643Z,100.00
2023-05-17T03:22:24.388Z,100.00
2023-05-17T03:24:52.053Z,100.00
2023-05-17T03:27:19.756Z,100.00
2023-05-17T03:29:47.437Z,100.00
2023-05-17T03:32:16.504Z,100.00
2023-05-17T03:34:44.197Z,100.00
2023-05-17T03:37:11.915Z,100.00
2023-05-17T03:39:39.558Z,100.00
2023-05-17T03:42:07.447Z,100.00
2023-05-17T03:44:35.104Z,100.00
2023-05-17T03:47:02.808Z,100.00
2023-05-17T03:49:31.855Z,100.00
2023-05-17T03:51:59.557Z,100.00
2023-05-17T03:54:27.289Z,100.00
2023-05-17T03:56:54.985Z,100.00
2023-05-17T03:59:22.700Z,100.00
2023-05-17T04:01:50.562Z,100.00
2023-05-17T04:04:18.233Z,100.00
2023-05-17T04:06:47.210Z,100.00
2023-05-17T04:09:15.562Z,100.00
2023-05-17T04:11:43.567Z,100.00
2023-05-17T04:14:11.213Z,100.00
2023-05-17T04:16:38.853Z,100.00
2023-05-17T04:19:06.721Z,100.00
2023-05-17T04:21:34.452Z,100.00
2023-05-17T04:24:03.425Z,100.00
2023-05-17T04:26:32.261Z,100.00
2023-05-17T04:28:59.933Z,100.00
2023-05-17T04:31:27.715Z,100.00
2023-05-17T04:33:55.399Z,100.00
2023-05-17T04:36:23.095Z,100.00
2023-05-17T04:38:50.828Z,100.00
2023-05-17T04:41:19.853Z,100.00
2023-05-17T04:43:47.615Z,100.00
2023-05-17T04:46:15.273Z,100.00
2023-05-17T04:48:42.997Z,100.00
2023-05-17T04:51:10.822Z,100.00
2023-05-17T04:53:38.434Z,100.00
2023-05-17T04:56:06.920Z,100.00
2023-05-17T04:58:36.010Z,100.00
2023-05-17T05:01:03.816Z,100.00
2023-05-17T05:03:31.525Z,100.00
2023-05-17T05:05:59.224Z,100.00
2023-05-17T05:08:26.898Z,100.00
2023-05-17T05:10:54.557Z,100.00
2023-05-17T05:13:22.776Z,100.00
2023-05-17T05:15:51.914Z,100.00
2023-05-17T05:18:19.679Z,100.00
2023-05-17T05:20:47.582Z,100.00
2023-05-17T05:23:15.255Z,100.00
2023-05-17T05:25:44.508Z,100.00
2023-05-17T05:28:12.269Z,100.00
2023-05-17T05:30:40.410Z,100.00
2023-05-17T05:33:09.534Z,100.00
2023-05-17T05:35:37.324Z,100.00
2023-05-17T05:38:04.935Z,100.00
2023-05-17T05:40:32.866Z,100.00
2023-05-17T05:43:00.602Z,100.00
2023-05-17T05:45:28.243Z,100.00
2023-05-17T05:47:55.951Z,100.00
2023-05-17T05:50:25.071Z,100.00
2023-05-17T05:52:56.311Z,100.00
2023-05-17T05:55:31.476Z,100.00
2023-05-17T05:57:59.149Z,100.00
2023-05-17T06:00:27.235Z,100.00
2023-05-17T06:02:57.298Z,100.00
2023-05-17T06:05:26.703Z,100.00
2023-05-17T06:07:54.388Z,99.19
2023-05-17T06:10:22.454Z,100.00
2023-05-17T06:12:50.331Z,99.92
2023-05-17T06:15:18.217Z,97.28
2023-05-17T06:17:46.090Z,99.94
2023-05-17T06:20:15.082Z,97.83
2023-05-17T06:22:44.097Z,93.67
2023-05-17T06:25:12.135Z,94.39
2023-05-17T06:27:39.913Z,90.90
2023-05-17T06:30:08.823Z,95.55
2023-05-17T06:32:36.497Z,93.81
2023-05-17T06:35:04.738Z,92.51
2023-05-17T06:37:33.073Z,91.31
2023-05-17T06:40:10.537Z,94.79
2023-05-17T06:42:43.066Z,89.65
2023-05-17T06:45:12.032Z,90.82
2023-05-17T06:47:41.834Z,86.91
2023-05-17T06:50:10.532Z,89.46
2023-05-17T06:52:38.260Z,83.74
2023-05-17T06:55:09.290Z,83.62
2023-05-17T06:57:37.580Z,85.45
2023-05-17T07:00:10.506Z,90.21
2023-05-17T07:02:38.318Z,85.15
2023-05-17T07:05:07.243Z,86.42
2023-05-17T07:07:35.093Z,85.09
2023-05-17T07:10:02.763Z,86.92
2023-05-17T07:12:31.785Z,85.74
2023-05-17T07:14:59.452Z,84.94
2023-05-17T07:17:27.151Z,84.10
2023-05-17T07:19:55.035Z,82.83
2023-05-17T07:22:22.890Z,82.48
2023-05-17T07:24:51.041Z,85.61
2023-05-17T07:27:18.756Z,88.89
2023-05-17T07:29:47.856Z,81.81
2023-05-17T07:32:16.059Z,84.78
2023-05-17T07:34:43.765Z,82.07
2023-05-17T07:37:11.488Z,82.04
2023-05-17T07:39:39.226Z,81.27
2023-05-17T07:42:07.809Z,80.91
2023-05-17T07:44:35.654Z,81.04
2023-05-17T07:47:04.857Z,78.81
2023-05-17T07:49:32.648Z,82.95
2023-05-17T07:52:00.329Z,78.76
2023-05-17T07:54:28.225Z,81.37
2023-05-17T07:56:56.157Z,78.03
2023-05-17T07:59:23.859Z,82.76
2023-05-17T08:01:51.790Z,74.15
2023-05-17T08:04:20.954Z,77.45
2023-05-17T08:06:50.057Z,76.51
2023-05-17T08:09:18.015Z,75.80
2023-05-17T08:11:47.041Z,77.06
2023-05-17T08:14:15.688Z,75.87
2023-05-17T08:16:43.461Z,74.22
2023-05-17T08:19:14.003Z,76.24
2023-05-17T08:21:43.764Z,68.37
2023-05-17T08:24:11.669Z,73.32
2023-05-17T08:26:39.359Z,68.21
2023-05-17T08:29:07.190Z,70.10
2023-05-17T08:31:34.868Z,71.42
2023-05-17T08:34:03.295Z,70.44
2023-05-17T08:36:31.036Z,67.11
2023-05-17T08:39:00.049Z,67.65
2023-05-17T08:41:27.718Z,68.71
2023-05-17T08:43:56.899Z,67.31
2023-05-17T08:46:25.198Z,66.83
2023-05-17T08:48:59.986Z,69.65
2023-05-17T08:51:28.565Z,70.55
2023-05-17T08:53:56.304Z,65.14
2023-05-17T08:56:27.079Z,77.67
2023-05-17T08:58:58.127Z,75.47
2023-05-17T09:01:28.383Z,77.04
2023-05-17T09:03:57.136Z,66.15
2023-05-17T09:06:25.475Z,62.59
2023-05-17T09:08:54.534Z,66.25
2023-05-17T09:11:30.823Z,66.03
2023-05-17T09:14:02.043Z,62.80
2023-05-17T09:16:30.297Z,68.95
2023-05-17T09:18:59.639Z,66.55
2023-05-17T09:21:28.268Z,70.13
2023-05-17T09:24:06.374Z,65.20
2023-05-17T09:26:43.813Z,61.33
2023-05-17T09:29:12.141Z,65.55
2023-05-17T09:31:40.138Z,59.28
2023-05-17T09:34:08.745Z,61.79
2023-05-17T09:36:38.503Z,62.40
2023-05-17T09:39:10.766Z,59.33
2023-05-17T09:41:43.476Z,64.58
2023-05-17T09:44:12.362Z,60.42
2023-05-17T09:46:42.919Z,55.19
2023-05-17T09:49:10.616Z,52.46
2023-05-17T09:51:40.951Z,55.21
2023-05-17T09:54:10.087Z,61.28
2023-05-17T09:56:38.075Z,58.69
2023-05-17T09:59:13.662Z,56.07
2023-05-17T10:01:42.233Z,56.73
2023-05-17T10:04:11.083Z,56.96
2023-05-17T10:09:14.598Z,60.70
2023-05-17T10:11:44.558Z,54.35
2023-05-17T10:14:18.494Z,54.46
2023-05-17T10:16:46.404Z,55.19
2023-05-17T10:19:14.796Z,59.20
2023-05-17T10:21:43.232Z,59.28
2023-05-17T10:24:12.540Z,54.95
2023-05-17T10:26:40.294Z,58.12
2023-05-17T10:29:08.611Z,58.69
2023-05-17T10:31:37.687Z,58.74
2023-05-17T10:34:06.427Z,55.94
2023-05-17T10:36:34.855Z,59.35
2023-05-17T10:39:03.006Z,57.81
2023-05-17T10:41:33.835Z,56.93
2023-05-17T10:44:03.199Z,55.71
2023-05-17T10:46:31.613Z,56.79
2023-05-17T10:49:02.166Z,62.48
2023-05-17T10:51:32.534Z,53.50
2023-05-17T10:54:11.579Z,56.52
2023-05-17T10:56:43.169Z,51.97
2023-05-17T10:59:18.546Z,52.65
2023-05-17T11:01:58.980Z,52.22
2023-05-17T11:04:31.763Z,55.84
2023-05-17T11:07:32.996Z,51.49
2023-05-17T11:10:07.106Z,57.64
2023-05-17T11:12:38.539Z,49.52
2023-05-17T11:15:09.102Z,55.99
2023-05-17T11:17:38.625Z,50.89
2023-05-17T11:20:13.503Z,52.30
2023-05-17T11:22:42.994Z,51.75
2023-05-17T11:25:13.278Z,55.59
2023-05-17T11:27:45.887Z,57.05
2023-05-17T11:30:22.979Z,53.25
2023-05-17T11:32:51.977Z,47.91
2023-05-17T11:35:24.918Z,51.16
2023-05-17T11:37:54.487Z,51.19
2023-05-17T11:40:29.223Z,51.70
2023-05-17T11:43:16.691Z,55.15
2023-05-17T11:45:46.019Z,53.22
2023-05-17T11:48:13.843Z,50.52
2023-05-17T11:50:43.568Z,53.17
2023-05-17T11:53:11.608Z,51.96
2023-05-17T11:55:40.133Z,51.02
2023-05-17T11:58:09.172Z,54.54
2023-05-17T12:00:38.676Z,53.25
2023-05-17T12:03:18.968Z,50.49
2023-05-17T12:05:49.950Z,49.73
2023-05-17T12:08:19.046Z,48.73
2023-05-17T12:10:50.324Z,55.18
2023-05-17T12:13:18.191Z,50.63
2023-05-17T12:15:49.112Z,52.84
2023-05-17T12:18:17.074Z,53.37
2023-05-17T12:20:59.315Z,55.81
2023-05-17T12:23:28.916Z,51.29
2023-05-17T12:26:07.216Z,50.65
2023-05-17T12:28:35.611Z,48.21
2023-05-17T12:31:04.084Z,49.95
2023-05-17T12:33:33.232Z,48.90
2023-05-17T12:36:03.537Z,52.24
2023-05-17T12:38:33.311Z,47.97
2023-05-17T12:41:04.625Z,47.24
2023-05-17T12:43:34.292Z,46.39
2023-05-17T12:46:07.682Z,47.21
2023-05-17T12:48:36.574Z,52.76
2023-05-17T12:51:11.746Z,48.84
2023-05-17T12:53:40.291Z,51.75
2023-05-17T12:56:08.662Z,48.36
2023-05-17T12:58:37.256Z,53.18
2023-05-17T13:01:07.015Z,50.17
2023-05-17T13:03:35.024Z,50.67
2023-05-17T13:06:04.569Z,50.52
2023-05-17T13:08:33.893Z,49.13
2023-05-17T13:11:08.777Z,50.52
2023-05-17T13:13:36.736Z,49.03
2023-05-17T13:16:04.552Z,50.00
2023-05-17T13:18:35.620Z,50.30
2023-05-17T13:21:03.824Z,51.14
2023-05-17T13:23:32.863Z,50.50
2023-05-17T13:26:00.510Z,49.04
2023-05-17T13:28:28.161Z,47.80
2023-05-17T13:30:56.000Z,52.01
2023-05-17T13:33:23.840Z,49.95
2023-05-17T13:35:51.607Z,49.80
2023-05-17T13:38:19.345Z,44.24
2023-05-17T13:40:48.376Z,48.69
2023-05-17T13:43:16.095Z,45.84
2023-05-17T13:45:43.784Z,49.76
2023-05-17T13:48:12.062Z,49.68
2023-05-17T13:50:40.918Z,49.39
2023-05-17T13:53:08.559Z,53.83
2023-05-17T13:55:36.273Z,50.28
2023-05-17T13:58:05.599Z,51.32
2023-05-17T14:00:33.302Z,53.33
2023-05-17T14:03:01.072Z,52.31
2023-05-17T14:05:28.894Z,51.64
2023-05-17T14:07:56.657Z,53.69
2023-05-17T14:10:24.289Z,52.29
2023-05-17T14:12:51.977Z,52.46
2023-05-17T14:15:21.099Z,52.94
2023-05-17T14:17:48.940Z,51.93
2023-05-17T14:20:16.918Z,51.17
2023-05-17T14:22:44.592Z,52.13
2023-05-17T14:25:12.523Z,48.79
2023-05-17T14:27:40.193Z,50.19
2023-05-17T14:30:10.194Z,53.64
2023-05-17T14:32:40.692Z,49.54
2023-05-17T14:35:09.200Z,51.64
2023-05-17T14:37:36.903Z,51.05
2023-05-17T14:40:06.808Z,52.43
2023-05-17T14:42:34.917Z,49.90
2023-05-17T14:45:02.767Z,49.67
2023-05-17T14:47:30.556Z,49.72
2023-05-17T14:49:59.851Z,47.63
2023-05-17T14:52:27.515Z,47.97
2023-05-17T14:54:55.213Z,46.93
2023-05-17T14:57:23.439Z,48.66
2023-05-17T14:59:51.085Z,48.62
2023-05-17T15:02:18.918Z,52.70
2023-05-17T15:04:47.540Z,54.12
2023-05-17T15:07:16.852Z,53.31
2023-05-17T15:09:44.675Z,53.61
2023-05-17T15:12:14.065Z,54.87
2023-05-17T15:14:42.002Z,52.38
2023-05-17T15:17:09.647Z,55.89
2023-05-17T15:19:37.416Z,53.51
2023-05-17T15:22:05.640Z,54.30
2023-05-17T15:24:34.858Z,53.74
2023-05-17T15:27:02.560Z,54.78
2023-05-17T15:29:31.251Z,56.88
2023-05-17T15:31:59.904Z,54.03
2023-05-17T15:34:29.157Z,52.10
2023-05-17T15:36:58.147Z,53.07
2023-05-17T15:39:25.814Z,52.12
2023-05-17T15:41:54.933Z,53.32
2023-05-17T15:44:23.895Z,53.99
2023-05-17T15:46:51.794Z,55.21
2023-05-17T15:49:19.654Z,55.71
2023-05-17T15:51:47.674Z,57.85
2023-05-17T15:54:15.876Z,56.08
2023-05-17T15:56:43.582Z,56.52
2023-05-17T15:59:12.604Z,56.72
2023-05-17T16:01:41.883Z,54.91
2023-05-17T16:04:09.594Z,54.34
2023-05-17T16:06:37.423Z,54.48
2023-05-17T16:09:05.332Z,56.12
2023-05-17T16:11:33.072Z,53.21
2023-05-17T16:14:00.770Z,54.37
2023-05-17T16:16:29.758Z,55.52
2023-05-17T16:18:58.572Z,56.75
2023-05-17T16:21:26.655Z,56.71
2023-05-17T16:23:54.318Z,57.35
2023-05-17T16:26:22.155Z,56.78
2023-05-17T16:28:50.668Z,57.86
2023-05-17T16:31:18.389Z,58.78
2023-05-17T16:33:47.565Z,59.64
2023-05-17T16:36:15.294Z,58.29
2023-05-17T16:38:43.015Z,58.26
2023-05-17T16:41:10.908Z,59.25
2023-05-17T16:43:38.537Z,58.71
2023-05-17T16:46:06.239Z,57.78
2023-05-17T16:48:33.976Z,58.78
2023-05-17T16:51:03.109Z,59.97
2023-05-17T16:53:30.820Z,60.92
2023-05-17T16:55:58.533Z,60.78
2023-05-17T16:58:27.046Z,61.25
2023-05-17T17:00:54.680Z,60.59
2023-05-17T17:03:22.585Z,60.76
2023-05-17T17:05:50.323Z,60.46
2023-05-17T17:08:19.365Z,61.69
2023-05-17T17:10:47.060Z,61.77
2023-05-17T17:13:15.067Z,62.18
2023-05-17T17:15:42.726Z,63.17
2023-05-17T17:18:10.452Z,63.40
2023-05-17T17:20:38.181Z,64.61
2023-05-17T17:23:06.486Z,62.76
2023-05-17T17:25:35.502Z,64.52
2023-05-17T17:28:03.150Z,65.04
2023-05-17T17:30:31.018Z,66.11
2023-05-17T17:32:59.050Z,66.16
2023-05-17T17:35:26.820Z,67.03
2023-05-17T17:37:54.465Z,66.92
2023-05-17T17:40:22.155Z,66.25
2023-05-17T17:42:51.288Z,66.10
2023-05-17T17:45:18.951Z,66.15
2023-05-17T17:47:46.659Z,68.09
2023-05-17T17:50:14.469Z,67.33
2023-05-17T17:52:42.163Z,67.35
2023-05-17T17:55:12.994Z,68.17
2023-05-17T17:57:41.661Z,68.12
2023-05-17T18:00:12.810Z,68.74
2023-05-17T18:02:40.577Z,68.07
2023-05-17T18:05:09.072Z,68.70
2023-05-17T18:07:36.760Z,69.59
2023-05-17T18:10:04.665Z,70.82
2023-05-17T18:12:32.499Z,70.04
2023-05-17T18:15:00.159Z,70.40
2023-05-17T18:17:29.443Z,70.48
2023-05-17T18:19:57.202Z,71.44
2023-05-17T18:22:24.933Z,70.80
2023-05-17T18:24:52.685Z,72.16
2023-05-17T18:27:20.433Z,72.69
2023-05-17T18:29:48.076Z,72.33
2023-05-17T18:32:15.791Z,73.06
2023-05-17T18:34:45.024Z,72.98
2023-05-17T18:37:12.843Z,72.80
2023-05-17T18:39:40.749Z,72.66
2023-05-17T18:42:08.546Z,73.01
2023-05-17T18:44:36.974Z,72.88
2023-05-17T18:47:04.786Z,72.72
2023-05-17T18:49:32.464Z,73.23
2023-05-17T18:52:01.478Z,73.10
2023-05-17T18:54:29.167Z,73.11
2023-05-17T18:56:56.805Z,73.94
2023-05-17T18:59:24.429Z,73.45
2023-05-17T19:01:52.119Z,74.21
2023-05-17T19:04:19.866Z,73.17
2023-05-17T19:06:47.573Z,74.40
2023-05-17T19:09:16.617Z,74.21
2023-05-17T19:11:44.291Z,73.97
2023-05-17T19:14:14.539Z,74.29
2023-05-17T19:16:42.261Z,74.77
2023-05-17T19:19:10.247Z,75.34
2023-05-17T19:21:38.036Z,74.39
2023-05-17T19:24:06.600Z,74.73
2023-05-17T19:26:35.865Z,75.11
2023-05-17T19:29:03.522Z,75.92
2023-05-17T19:31:31.222Z,76.31
2023-05-17T19:33:59.358Z,75.48
2023-05-17T19:36:27.039Z,77.80
2023-05-17T19:38:54.710Z,77.27
2023-05-17T19:41:22.969Z,77.39
2023-05-17T19:43:51.946Z,78.20
2023-05-17T19:46:19.674Z,79.01
2023-05-17T19:48:47.776Z,77.86
2023-05-17T19:51:15.437Z,77.38
2023-05-17T19:53:52.670Z,77.09
2023-05-17T19:56:23.650Z,78.20
2023-05-17T19:58:54.084Z,78.30
2023-05-17T20:01:22.429Z,79.04
2023-05-17T20:03:50.334Z,77.71
2023-05-17T20:06:18.067Z,79.02
2023-05-17T20:08:46.819Z,77.77
2023-05-17T20:11:14.748Z,78.37
2023-05-17T20:13:42.365Z,78.65
2023-05-17T20:16:13.535Z,78.47
2023-05-17T20:18:42.786Z,77.93
2023-05-17T20:21:11.263Z,77.93
2023-05-17T20:23:39.158Z,80.48
2023-05-17T20:26:06.821Z,79.61
2023-05-17T20:28:34.498Z,79.33
2023-05-17T20:31:02.546Z,81.43
2023-05-17T20:33:31.542Z,80.63
2023-05-17T20:35:59.436Z,81.24
2023-05-17T20:38:27.127Z,80.04
2023-05-17T20:40:55.473Z,79.29
2023-05-17T20:43:28.679Z,81.43
2023-05-17T20:45:56.494Z,80.46
2023-05-17T20:48:24.285Z,80.18
2023-05-17T20:50:53.285Z,81.04
2023-05-17T20:53:21.087Z,82.33
2023-05-17T20:55:49.333Z,80.13
2023-05-17T20:58:17.028Z,81.92
2023-05-17T21:00:44.730Z,81.48
2023-05-17T21:03:12.463Z,82.78
2023-05-17T21:05:40.467Z,82.95
2023-05-17T21:08:12.918Z,83.65
2023-05-17T21:10:42.754Z,82.69
2023-05-17T21:13:12.390Z,83.32
2023-05-17T21:15:40.048Z,87.40
2023-05-17T21:18:08.771Z,84.83
2023-05-17T21:20:36.726Z,84.79
2023-05-17T21:23:04.492Z,84.68
2023-05-17T21:25:34.063Z,85.42
2023-05-17T21:28:01.806Z,84.82
2023-05-17T21:30:29.688Z,84.94
2023-05-17T21:32:57.570Z,85.35
2023-05-17T21:35:25.251Z,84.67
2023-05-17T21:37:52.952Z,84.63
2023-05-17T21:40:20.637Z,84.29
2023-05-17T21:42:50.159Z,85.99
2023-05-17T21:45:17.789Z,85.25
2023-05-17T21:47:45.474Z,85.08
2023-05-17T21:50:13.180Z,86.60
2023-05-17T21:52:40.916Z,87.24
2023-05-17T21:55:09.770Z,87.21
2023-05-17T21:57:37.730Z,86.78
2023-05-17T22:00:12.564Z,86.53
2023-05-17T22:02:41.046Z,86.63
2023-05-17T22:05:09.331Z,86.95
2023-05-17T22:07:37.497Z,87.10
2023-05-17T22:10:08.744Z,87.92
2023-05-17T22:12:38.238Z,87.94
2023-05-17T22:15:09.672Z,87.68
2023-05-17T22:17:47.969Z,87.92
2023-05-17T22:20:23.453Z,88.57
2023-05-17T22:22:51.412Z,88.64
2023-05-17T22:25:19.226Z,89.37
2023-05-17T22:27:46.909Z,89.15
2023-05-17T22:30:16.049Z,89.12
2023-05-17T22:32:43.802Z,89.30
2023-05-17T22:35:11.644Z,89.58
2023-05-17T22:37:42.372Z,90.52
2023-05-17T22:40:11.012Z,92.67
2023-05-17T22:42:38.835Z,91.58
2023-05-17T22:45:07.180Z,94.00
2023-05-17T22:47:36.568Z,93.16
2023-05-17T22:50:04.608Z,92.27
2023-05-17T22:52:32.673Z,94.13
2023-05-17T22:55:00.397Z,93.80
2023-05-17T22:57:28.224Z,92.61
2023-05-17T22:59:55.955Z,93.43
2023-05-17T23:02:23.641Z,92.68
2023-05-17T23:04:52.692Z,92.93
2023-05-17T23:07:20.927Z,92.98
2023-05-17T23:09:48.572Z,92.79
2023-05-17T23:12:17.459Z,92.71
2023-05-17T23:14:45.164Z,94.07
2023-05-17T23:17:12.841Z,93.38
2023-05-17T23:19:40.608Z,92.31
2023-05-17T23:22:10.743Z,92.08
2023-05-17T23:24:38.832Z,92.22
2023-05-17T23:27:09.824Z,92.21
2023-05-17T23:29:37.681Z,91.23
2023-05-17T23:32:05.690Z,91.55
2023-05-17T23:34:33.498Z,92.37
2023-05-17T23:37:01.304Z,91.04
2023-05-17T23:39:30.580Z,90.49
2023-05-17T23:41:58.279Z,93.13
2023-05-17T23:44:26.712Z,92.21
2023-05-17T23:46:54.930Z,92.74
2023-05-17T23:49:22.807Z,92.80
2023-05-17T23:51:50.641Z,92.84
2023-05-17T23:54:18.415Z,92.50
2023-05-17T23:56:47.414Z,92.45
2023-05-17T23:59:15.023Z,92.50
